Tiempo atmosférico en la estación meteorológica de Pego, Alacant/Alicante (60 m.)



Fecha
DESCASC
Temp. máxima en grados centígrados (hora)
DESCASC
Temp. mínima en grados centígrados (hora)
DESCASC
Temp. media en grados centígrados
DESCASC
Racha de viento máxima en m/sg (hora)
DESCASC
Velocidad máxima media en intervalos de 10 minutos(hora)
DESCASC
Precipitaciones diarias en mm
DESCASC
Precipitaciones de 00:00 a 06:00 en mm
DESCASC
Precipitaciones de 06:00 a 12:00 en mm
DESCASC
Precipitaciones de 12:00 a 18:00 en mm
DESCASC
Precipitaciones de 18:00 a 24:00 en mm
DESCASC
16-04-2019 21.2 (15:20) 11.2 (07:20) 16.2 6.39 (16:00) 3.61 (16:20) 0 0 0 0 0
15-04-2019 22.1 (00:00) 13.1 (07:20) 17.6 5.83 (00:10) 3.61 (00:10) 0 0 0 0 0
14-04-2019 30.3 (16:50) 10.3 (00:00) 20.3 9.17 (11:00) 5.83 (11:00) 0 0 0 0 0
13-04-2019 22.1 (17:00) 10.1 (00:00) 16.1 6.11 (13:10) 3.61 (13:10) 0 0 0 0 0
12-04-2019 20.8 (16:00) 10.3 (00:00) 15.5 7.22 (13:00) 4.17 (12:50) 0 0 0 0 0
11-04-2019 22 (16:30) 11 (00:00) 16.5 7.22 (16:20) 3.89 (13:10) 0 0 0 0 0
10-04-2019 21 (16:30) 12.9 (00:00) 16.9 12.5 (08:30) 7.5 (08:40) 0 0 0 0 0
09-04-2019 20.9 (16:30) 12 (00:00) 16.4 22.22 (18:50) 9.44 (17:00) 2.2 0 0 0 2.2
08-04-2019 23.1 (17:20) 13.2 (00:00) 18.2 13.89 (21:50) 7.22 (22:00) 0 0 0 0 0
07-04-2019 20 (17:20) 10.4 (00:00) 15.2 17.78 (11:20) 8.89 (11:10) 0.2 0.2 0 0 0
06-04-2019 16.8 (14:10) 10 (00:00) 13.4 16.39 (15:00) 8.33 (09:30) 1.8 0 0 1.8 0
05-04-2019 19.3 (13:20) 8.8 (00:00) 14 13.06 (22:10) 7.5 (22:20) 3 0 0 1.6 1.4
04-04-2019 18.2 (15:20) 10.8 (00:00) 14.5 7.78 (16:40) 4.17 (18:20) 0 0 0 0 0
03-04-2019 25.3 (15:30) 12.9 (00:00) 19.1 10.56 (15:50) 5.28 (15:50) 0 0 0 0 0
02-04-2019 22.4 (14:50) 10.1 (00:00) 16.3 8.06 (18:40) 4.17 (15:10) 12.4 0 0 0 12.4
01-04-2019 13.9 (02:50) 11.2 (00:00) 12.5 6.94 (00:10) 3.89 (00:10) 13.4 3.8 9.2 0.4 0
31-03-2019 13.6 (14:00) 9.9 (00:00) 11.8 10.28 (20:20) 4.72 (20:00) 70.8 1.8 21 25.8 22.2
30-03-2019 16.8 (11:50) 9.8 (00:00) 13.3 6.67 (14:30) 3.33 (14:30) 0 0 0 0 0
29-03-2019 17.6 (14:30) 8.3 (00:00) 13 7.5 (15:40) 4.17 (16:10) 0 0 0 0 0
28-03-2019 18.9 (11:30) 7.7 (00:00) 13.3 6.67 (11:40) 3.89 (11:40) 0 0 0 0 0
27-03-2019 18.5 (13:40) 8.1 (00:00) 13.3 8.06 (13:20) 4.17 (13:50) 0 0 0 0 0
26-03-2019 18 (15:20) 9.6 (00:00) 13.8 8.61 (16:20) 4.72 (16:20) 0 0 0 0 0
25-03-2019 21.9 (12:10) 10.5 (00:00) 16.2 6.11 (13:00) 3.61 (12:30) 0 0 0 0 0
24-03-2019 21.9 (15:50) 10.1 (00:00) 16 5.83 (13:10) 3.33 (12:50) 0 0 0 0 0
23-03-2019 18.6 (15:50) 11.1 (00:00) 14.9 5.28 (14:40) 3.33 (14:40) 0 0 0 0 0
22-03-2019 18.6 (15:50) 8.9 (00:00) 13.8 7.22 (13:30) 3.33 (13:30) 0 0 0 0 0
21-03-2019 15.9 (16:10) 7.4 (00:00) 11.6 9.44 (15:00) 5 (14:40) 0 0 0 0 0
20-03-2019 14.7 (16:40) 8.3 (00:00) 11.5 9.72 (03:50) 3.89 (10:40) 12.8 4.8 5 3 0
19-03-2019 17.2 (14:40) 8.8 (00:00) 13 8.33 (12:20) 4.17 (12:20) 0 0 0 0 0

Gráficas

Temp. máximas Temp. mínimas Temp. medias Precipitaciones Rachas de viento máximas Velocidades máximas media en intervalos de 10 minutos

Datos horarios

Fecha y hora oficial Temperatura (ºC) Velocidad del viento (km/h) Dirección del viento Racha (km/h) Dirección de racha Precipitación (mm) Presión (hPa) Tendencia (hPa) Humedad (%)
2019-04-17 23:00:00 15.3 5 Nordeste 14 Nordeste 0 -- -- 83
2019-04-17 22:00:00 15.3 4 Nordeste 13 Nordeste 0 -- -- 83
2019-04-17 21:00:00 15.6 6 Nordeste 14 Nordeste 0 -- -- 82
2019-04-17 20:00:00 16.1 8 Nordeste 14 Nordeste 0 -- -- 79
2019-04-17 19:00:00 16.6 7 Nordeste 17 Nordeste 0 -- -- 74
2019-04-17 18:00:00 17.2 9 Nordeste 19 Nordeste 0 -- -- 72
2019-04-17 17:00:00 17.3 10 Nordeste 20 Este 0 -- -- 70
2019-04-17 16:00:00 18 10 Nordeste 21 Nordeste 0 -- -- 67
2019-04-17 15:00:00 17.9 9 Nordeste 18 Nordeste 0 -- -- 64
2019-04-17 14:00:00 18.6 9 Nordeste 25 Nordeste 0 -- -- 65
2019-04-17 13:00:00 18.1 12 Nordeste 23 Nordeste 0 -- -- 68
2019-04-17 12:00:00 17.9 11 Nordeste 19 Este 0 -- -- 68
2019-04-17 11:00:00 16.4 2 Norte 8 Norte 0 -- -- 74
2019-04-17 10:00:00 15.4 2 Este 8 Este 0 -- -- 79
2019-04-17 09:00:00 15.1 3 Nordeste 6 Nordeste 0 -- -- 80
2019-04-17 08:00:00 14.6 2 Nordeste 6 Norte 0 -- -- 83
2019-04-17 07:00:00 14.6 4 Este 9 Nordeste 0 -- -- 84
2019-04-17 06:00:00 14.7 4 Nordeste 9 Norte 0 -- -- 83
2019-04-17 05:00:00 14.7 3 Norte 9 Nordeste 0 -- -- 83
2019-04-17 04:00:00 14.7 0 Calma 8 Nordeste 0 -- -- 83
2019-04-17 03:00:00 14.7 0 Calma 4 Sudoeste 0 -- -- 85
2019-04-17 02:00:00 14.4 3 Sudoeste 4 Sudoeste 0 -- -- 86
2019-04-17 01:00:00 14.3 2 Sudoeste 4 Sudoeste 0 -- -- 86
2019-04-17 00:00:00 14.9 0 Calma 5 Nordeste 0 -- -- 84
2019-04-16 23:00:00 14.6 2 Oeste 5 Oeste 0 -- -- 84
2019-04-16 22:00:00 15 3 Oeste 4 Nordeste 0 -- -- 82
2019-04-16 21:00:00 15.5 3 Nordeste 9 Nordeste 0 -- -- 79
2019-04-16 20:00:00 17.2 6 Nordeste 14 Nordeste 0 -- -- 69
2019-04-16 19:00:00 18.9 10 Nordeste 17 Nordeste 0 -- -- 63
2019-04-16 18:00:00 19.4 9 Nordeste 19 Nordeste 0 -- -- 64
2019-04-16 17:00:00 19.9 9 Nordeste 22 Nordeste 0 -- -- 62
2019-04-16 16:00:00 20.4 10 Nordeste 23 Este 0 -- -- 62
2019-04-16 15:00:00 20.7 9 Nordeste 18 Nordeste 0 -- -- 55
2019-04-16 14:00:00 19.3 11 Nordeste 21 Norte 0 -- -- 67
2019-04-16 13:00:00 18.6 12 Nordeste 22 Nordeste 0 -- -- 70
2019-04-16 12:00:00 18.5 11 Nordeste 19 Nordeste 0 -- -- 69
2019-04-16 11:00:00 16.9 6 Este 14 Norte 0 -- -- 74
2019-04-16 10:00:00 16.2 4 Este 10 Sudeste 0 -- -- 78
2019-04-16 09:00:00 14.8 0 Calma 5 Nordeste 0 -- -- 84
2019-04-16 08:00:00 11.7 3 Oeste 6 Sudoeste 0 -- -- 91
2019-04-16 07:00:00 11.6 0 Calma 4 Sur 0 -- -- 90
2019-04-16 06:00:00 12.5 3 Sudoeste 8 Sudoeste 0 -- -- 90
2019-04-16 05:00:00 12.9 0 Calma 7 Este 0 -- -- 89
2019-04-16 04:00:00 13.5 0 Calma 6 Este 0 -- -- 87
2019-04-16 03:00:00 14.5 0 Calma 7 Sudeste 0 -- -- 86
2019-04-16 02:00:00 15.4 0 Calma 9 Este 0 -- -- 84
2019-04-16 01:00:00 15.9 2 Este 8 Nordeste 0 -- -- 80
2019-04-16 00:00:00 16.4 0 Calma 6 Este 0 -- -- 79
2019-04-15 23:00:00 16.4 3 Este 7 Este 0 -- -- 78
2019-04-15 22:00:00 16.4 2 Nordeste 6 Nordeste 0 -- -- 78
2019-04-15 21:00:00 16.5 3 Nordeste 10 Nordeste 0 -- -- 78
2019-04-15 20:00:00 17.1 4 Nordeste 12 Norte 0 -- -- 77
2019-04-15 19:00:00 17.5 5 Nordeste 11 Nordeste 0 -- -- 77
2019-04-15 18:00:00 17.8 6 Nordeste 15 Nordeste 0 -- -- 77
2019-04-15 17:00:00 18.5 9 Nordeste 21 Nordeste 0 -- -- 70
2019-04-15 16:00:00 19.8 7 Nordeste 21 Nordeste 0 -- -- 64
2019-04-15 15:00:00 19.7 10 Norte 21 Norte 0 -- -- 65
2019-04-15 14:00:00 19.5 7 Norte 20 Norte 0 -- -- 65
2019-04-15 13:00:00 18.4 7 Norte 21 Norte 0 -- -- 67
2019-04-15 12:00:00 17.7 8 Norte 18 Norte 0 -- -- 70
2019-04-15 11:00:00 18.1 8 Norte 17 Nordeste 0 -- -- 70
2019-04-15 10:00:00 17.3 5 Noroeste 13 Noroeste 0 -- -- 71
2019-04-15 09:00:00 15.3 3 Noroeste 8 Noroeste 0 -- -- 79
2019-04-15 08:00:00 13.3 2 Sudoeste 6 Noroeste 0 -- -- 87
2019-04-15 07:00:00 13.4 3 Sudoeste 7 Noroeste 0 -- -- 83
2019-04-15 06:00:00 14 3 Sudoeste 9 Este 0 -- -- 82
2019-04-15 05:00:00 14.4 0 Calma 6 Sudoeste 0 -- -- 80
2019-04-15 04:00:00 14.9 3 Sudoeste 8 Sudoeste 0 -- -- 81
2019-04-15 03:00:00 15.7 2 Oeste 5 Nordeste 0 -- -- 79
2019-04-15 02:00:00 16.9 3 Este 8 Este 0 -- -- 74
2019-04-15 01:00:00 17.8 5 Este 21 Este 0 -- -- 72
2019-04-15 00:00:00 22.1 7 Norte 18 Nordeste 0 -- -- 45
2019-04-14 23:00:00 23 8 Sudoeste 13 Sudoeste 0 -- -- 40
2019-04-14 22:00:00 22.8 8 Sudoeste 15 Oeste 0 -- -- 40
2019-04-14 21:00:00 24.3 6 Sudoeste 11 Oeste 0 -- -- 38
2019-04-14 20:00:00 27.9 2 Este 16 Este 0 -- -- 33
2019-04-14 19:00:00 28.8 10 Este 21 Este 0 -- -- 27
2019-04-14 18:00:00 29.1 9 Este 23 Sudeste 0 -- -- 28
2019-04-14 17:00:00 30.2 11 Nordeste 23 Oeste 0 -- -- 25
2019-04-14 16:00:00 29.7 8 Noroeste 23 Oeste 0 -- -- 23
2019-04-14 15:00:00 28.6 8 Oeste 24 Oeste 0 -- -- 24
2019-04-14 14:00:00 27.6 12 Oeste 28 Oeste 0 -- -- 25
2019-04-14 13:00:00 27.1 7 Noroeste 19 Noroeste 0 -- -- 25
2019-04-14 12:00:00 25.8 8 Oeste 30 Oeste 0 -- -- 25
2019-04-14 11:00:00 23.7 21 Oeste 33 Sudoeste 0 -- -- 31
2019-04-14 10:00:00 22.5 16 Oeste 30 Oeste 0 -- -- 32
2019-04-14 09:00:00 20.3 18 Oeste 30 Oeste 0 -- -- 35
2019-04-14 08:00:00 18.6 15 Oeste 28 Oeste 0 -- -- 34
2019-04-14 07:00:00 18.3 18 Oeste 27 Oeste 0 -- -- 32
2019-04-14 06:00:00 17.9 8 Oeste 29 Oeste 0 -- -- 36
2019-04-14 05:00:00 13.4 7 Oeste 17 Oeste 0 -- -- 48
2019-04-14 04:00:00 10.6 4 Este 9 Sudoeste 0 -- -- 74
2019-04-14 03:00:00 10.5 3 Sudoeste 5 Sudoeste 0 -- -- 71
2019-04-14 02:00:00 12.1 3 Oeste 8 Nordeste 0 -- -- 66
2019-04-14 01:00:00 14.6 5 Sudoeste 9 Sudoeste 0 -- -- 54
2019-04-14 00:00:00 13.8 5 Sudoeste 8 Oeste 0 -- -- 60
2019-04-13 23:00:00 14.4 5 Sudoeste 8 Oeste 0 -- -- 60
2019-04-13 22:00:00 16.2 4 Sudoeste 7 Sudoeste 0 -- -- 53
2019-04-13 21:00:00 17.2 4 Sudoeste 7 Sudoeste 0 -- -- 49
2019-04-13 20:00:00 20.5 2 Noroeste 8 Nordeste 0 -- -- 36
2019-04-13 19:00:00 21.1 4 Nordeste 14 Nordeste 0 -- -- 33
2019-04-13 18:00:00 21.4 10 Nordeste 21 Este 0 -- -- 40
2019-04-13 17:00:00 22.1 9 Nordeste 17 Nordeste 0 -- -- 36
2019-04-13 16:00:00 21.6 7 Nordeste 21 Nordeste 0 -- -- 40
2019-04-13 15:00:00 21 6 Nordeste 16 Nordeste 0 -- -- 40
2019-04-13 14:00:00 20 9 Este 22 Nordeste 0 -- -- 44
2019-04-13 13:00:00 20.2 9 Nordeste 21 Nordeste 0 -- -- 40
2019-04-13 12:00:00 20.2 8 Este 16 Este 0 -- -- 42
2019-04-13 11:00:00 19.1 6 Este 13 Sur 0 -- -- 39
2019-04-13 10:00:00 16.8 8 Sudeste 15 Este 0 -- -- 53
2019-04-13 09:00:00 14.2 4 Sudoeste 9 Sudoeste 0 -- -- 55
2019-04-13 08:00:00 11 6 Sudoeste 11 Sudoeste 0 -- -- 63
2019-04-13 07:00:00 10.5 6 Sudoeste 10 Sudoeste 0 -- -- 66
2019-04-13 06:00:00 10.1 4 Sudoeste 6 Sudoeste 0 -- -- 71
2019-04-13 05:00:00 10.3 0 Calma 4 Sudoeste 0 -- -- 73
2019-04-13 04:00:00 11.1 0 Calma 7 Sudeste 0 -- -- 70
2019-04-13 03:00:00 13.4 4 Oeste 13 Sudoeste 0 -- -- 59
2019-04-13 02:00:00 13.3 6 Sudoeste 12 Sudoeste 0 -- -- 60
2019-04-13 01:00:00 14.4 3 Oeste 10 Sudoeste 0 -- -- 58
2019-04-13 00:00:00 14.9 5 Sudoeste 10 Oeste 0 -- -- 57
2019-04-12 23:00:00 15.4 5 Sudoeste 15 Oeste 0 -- -- 58
2019-04-12 22:00:00 16.1 7 Sudoeste 13 Sudoeste 0 -- -- 55
2019-04-12 21:00:00 16.8 3 Sudoeste 9 Este 0 -- -- 56
2019-04-12 20:00:00 19.2 6 Este 19 Este 0 -- -- 49
2019-04-12 19:00:00 20.1 10 Este 19 Este 0 -- -- 44
2019-04-12 18:00:00 20.5 13 Nordeste 25 Nordeste 0 -- -- 42
2019-04-12 17:00:00 20.7 13 Nordeste 25 Nordeste 0 -- -- 40
2019-04-12 16:00:00 20.8 12 Nordeste 21 Nordeste 0 -- -- 35
2019-04-12 15:00:00 19.7 10 Nordeste 22 Nordeste 0 -- -- 38
2019-04-12 14:00:00 19.3 9 Nordeste 22 Este 0 -- -- 40
2019-04-12 13:00:00 19.1 14 Nordeste 26 Este 0 -- -- 39
2019-04-12 12:00:00 19.1 6 Nordeste 12 Noroeste 0 -- -- 39
2019-04-12 11:00:00 17.3 4 Norte 21 Oeste 0 -- -- 41
2019-04-12 10:00:00 15.3 14 Oeste 24 Oeste 0 -- -- 44
2019-04-12 09:00:00 13.9 6 Oeste 15 Oeste 0 -- -- 48
2019-04-12 08:00:00 11.5 11 Oeste 20 Oeste 0 -- -- 54
2019-04-12 07:00:00 10.5 7 Sudoeste 14 Sudoeste 0 -- -- 60
2019-04-12 06:00:00 10.4 6 Sudoeste 13 Oeste 0 -- -- 64
2019-04-12 05:00:00 10.8 0 Calma 10 Oeste 0 -- -- 66
2019-04-12 04:00:00 11.5 7 Sudoeste 12 Oeste 0 -- -- 65
2019-04-12 03:00:00 12.4 4 Oeste 10 Oeste 0 -- -- 58
2019-04-12 02:00:00 13.4 5 Oeste 17 Sudoeste 0 -- -- 56
2019-04-12 01:00:00 13.3 6 Sudoeste 12 Sudoeste 0 -- -- 58
2019-04-12 00:00:00 13.8 7 Sudoeste 13 Sudoeste 0 -- -- 58
2019-04-11 23:00:00 13.9 6 Sudoeste 9 Sudoeste 0 -- -- 61
2019-04-11 22:00:00 16 4 Sudeste 13 Nordeste 0 -- -- 53
2019-04-11 21:00:00 17 4 Oeste 12 Oeste 0 -- -- 48
2019-04-11 20:00:00 19.1 7 Sudoeste 18 Sur 0 -- -- 44
2019-04-11 19:00:00 21 7 Sur 20 Sur 0 -- -- 39
2019-04-11 18:00:00 21.3 10 Sur 22 Sur 0 -- -- 38
2019-04-11 17:00:00 21.8 8 Este 26 Nordeste 0 -- -- 40
2019-04-11 16:00:00 21.5 7 Este 20 Nordeste 0 -- -- 38
2019-04-11 15:00:00 20.3 10 Nordeste 19 Nordeste 0 -- -- 38
2019-04-11 14:00:00 19.2 11 Nordeste 24 Nordeste 0 -- -- 41
2019-04-11 13:00:00 19.6 13 Nordeste 23 Nordeste 0 -- -- 39
2019-04-11 12:00:00 18.9 6 Norte 16 Norte 0 -- -- 40
2019-04-11 11:00:00 17.3 6 Noroeste 19 Oeste 0 -- -- 43
2019-04-11 10:00:00 15.5 9 Oeste 20 Oeste 0 -- -- 47
2019-04-11 09:00:00 13.5 12 Oeste 23 Oeste 0 -- -- 53
2019-04-11 08:00:00 11.4 9 Oeste 17 Oeste 0 -- -- 59
2019-04-11 07:00:00 11.2 8 Oeste 18 Oeste 0 -- -- 60
2019-04-11 06:00:00 11.1 8 Oeste 14 Oeste 0 -- -- 62
2019-04-11 05:00:00 11.5 5 Sudoeste 17 Oeste 0 -- -- 60
2019-04-11 04:00:00 12.3 9 Oeste 15 Oeste 0 -- -- 56
2019-04-11 03:00:00 12.3 4 Oeste 19 Oeste 0 -- -- 58
2019-04-11 02:00:00 13.6 10 Oeste 21 Oeste 0 -- -- 51
2019-04-11 01:00:00 13.4 12 Oeste 24 Oeste 0 -- -- 53
2019-04-11 00:00:00 13.7 12 Oeste 22 Oeste 0 -- -- 50
2019-04-10 23:00:00 13 9 Sudoeste 14 Sudoeste 0 -- -- 55
2019-04-10 22:00:00 13.4 9 Sudoeste 13 Sudoeste 0 -- -- 54
2019-04-10 21:00:00 15.3 4 Sudoeste 10 Sudoeste 0 -- -- 48
2019-04-10 20:00:00 17.8 4 Oeste 14 Oeste 0 -- -- 44
2019-04-10 19:00:00 17.1 5 Oeste 9 Oeste 0 -- -- 57
2019-04-10 18:00:00 16.7 2 Este 20 Noroeste 0 -- -- 50
2019-04-10 17:00:00 18.5 9 Norte 31 Oeste 0 -- -- 42
2019-04-10 16:00:00 19.2 11 Oeste 36 Oeste 0 -- -- 38
2019-04-10 15:00:00 20.2 21 Oeste 40 Oeste 0 -- -- 34
2019-04-10 14:00:00 19.2 18 Oeste 33 Oeste 0 -- -- 38
2019-04-10 13:00:00 18.5 16 Oeste 36 Oeste 0 -- -- 42
2019-04-10 12:00:00 17.7 12 Noroeste 37 Oeste 0 -- -- 45
2019-04-10 11:00:00 16.3 14 Oeste 43 Oeste 0 -- -- 48
2019-04-10 10:00:00 15.4 12 Oeste 34 Oeste 0 -- -- 50
2019-04-10 09:00:00 14.4 19 Oeste 45 Oeste 0 -- -- 54
2019-04-10 08:00:00 13.5 23 Oeste 42 Oeste 0 -- -- 55
2019-04-10 07:00:00 13.7 23 Oeste 43 Oeste 0 -- -- 54
2019-04-10 06:00:00 13.5 18 Oeste 38 Sudoeste 0 -- -- 57
2019-04-10 05:00:00 13.4 18 Oeste 33 Oeste 0 -- -- 58
2019-04-10 04:00:00 13.8 16 Oeste 34 Oeste 0 -- -- 56
2019-04-10 03:00:00 13.9 14 Oeste 24 Oeste 0 -- -- 56
2019-04-10 02:00:00 13.7 16 Oeste 31 Oeste 0 -- -- 57
2019-04-10 01:00:00 13.1 14 Oeste 25 Oeste 0 -- -- 58
2019-04-10 00:00:00 13.1 15 Oeste 23 Oeste 0 -- -- 59
2019-04-09 23:00:00 13 15 Oeste 27 Oeste 0 -- -- 62
2019-04-09 22:00:00 12.6 15 Oeste 57 Oeste 0 -- -- 70
2019-04-09 21:00:00 12.3 6 Oeste 12 Oeste 0.2 -- -- 84
2019-04-09 20:00:00 13.7 3 Sudoeste 9 Oeste 0.2 -- -- 74
2019-04-09 19:00:00 12.7 6 Oeste 80 Oeste 1.8 -- -- 79
2019-04-09 18:00:00 19.4 24 Sudoeste 44 Oeste 0 -- -- 35
2019-04-09 17:00:00 20.2 34 Oeste 58 Oeste 0 -- -- 33
2019-04-09 16:00:00 20.8 27 Oeste 51 Oeste 0 -- -- 33
2019-04-09 15:00:00 20.4 27 Oeste 50 Oeste 0 -- -- 33
2019-04-09 14:00:00 19.4 31 Oeste 50 Oeste 0 -- -- 36
2019-04-09 13:00:00 18.5 27 Oeste 55 Oeste 0 -- -- 38
2019-04-09 12:00:00 17.7 22 Oeste 46 Oeste 0 -- -- 43
2019-04-09 11:00:00 16.7 23 Oeste 52 Sudoeste 0 -- -- 48
2019-04-09 10:00:00 15.9 24 Oeste 46 Oeste 0 -- -- 51
2019-04-09 09:00:00 15 22 Sudoeste 43 Oeste 0 -- -- 53
2019-04-09 08:00:00 14.6 23 Oeste 49 Oeste 0 -- -- 52
2019-04-09 07:00:00 15.1 16 Oeste 44 Oeste 0 -- -- 49
2019-04-09 06:00:00 14.9 11 Oeste 26 Oeste 0 -- -- 52
2019-04-09 05:00:00 15.9 13 Oeste 36 Oeste 0 -- -- 51
2019-04-09 04:00:00 16.5 18 Oeste 36 Oeste 0 -- -- 51
2019-04-09 03:00:00 16.4 12 Oeste 18 Oeste 0 -- -- 55
2019-04-09 02:00:00 17.5 12 Oeste 37 Sudoeste 0 -- -- 54
2019-04-09 01:00:00 16.6 10 Oeste 22 Sudoeste 0 -- -- 57
2019-04-09 00:00:00 17.8 10 Sudoeste 23 Sudoeste 0 -- -- 53
2019-04-08 23:00:00 17.9 11 Oeste 36 Oeste 0 -- -- 54
2019-04-08 22:00:00 18.8 26 Sudoeste 50 Sudoeste 0 -- -- 50
2019-04-08 21:00:00 19.2 14 Oeste 40 Oeste 0 -- -- 51
2019-04-08 20:00:00 20 18 Oeste 32 Sudoeste 0 -- -- 47
2019-04-08 19:00:00 21 18 Oeste 33 Oeste 0 -- -- 44
2019-04-08 18:00:00 22.2 8 Oeste 30 Sudoeste 0 -- -- 43
2019-04-08 17:00:00 22.7 7 Oeste 35 Oeste 0 -- -- 42
2019-04-08 16:00:00 22.3 13 Oeste 27 Oeste 0 -- -- 42
2019-04-08 15:00:00 20.7 8 Noroeste 18 Norte 0 -- -- 45
2019-04-08 14:00:00 20.1 5 Norte 21 Nordeste 0 -- -- 50
2019-04-08 13:00:00 19.6 10 Sudoeste 34 Oeste 0 -- -- 50
2019-04-08 12:00:00 18.1 12 Oeste 27 Oeste 0 -- -- 53
2019-04-08 11:00:00 16.9 6 Oeste 21 Oeste 0 -- -- 58
2019-04-08 10:00:00 16.4 9 Oeste 30 Oeste 0 -- -- 58
2019-04-08 09:00:00 16.3 5 Oeste 28 Oeste 0 -- -- 58
2019-04-08 08:00:00 16 13 Oeste 26 Oeste 0 -- -- 58
2019-04-08 07:00:00 13.5 4 Sudoeste 8 Sudoeste 0 -- -- 68
2019-04-08 06:00:00 13.3 0 Calma 5 Sudoeste 0 -- -- 68
2019-04-08 05:00:00 13.3 0 Calma 4 Sur 0 -- -- 67
2019-04-08 04:00:00 13.7 0 Calma 8 Sudoeste 0 -- -- 62
2019-04-08 03:00:00 14.3 6 Sudoeste 15 Oeste 0 -- -- 59
2019-04-08 02:00:00 15.4 12 Oeste 21 Sudoeste 0 -- -- 51
2019-04-08 01:00:00 15.5 9 Sudoeste 15 Sudoeste 0 -- -- 51
2019-04-08 00:00:00 16.3 9 Oeste 21 Oeste 0 -- -- 47
2019-04-07 23:00:00 16.4 8 Oeste 17 Sudoeste 0 -- -- 46
2019-04-07 22:00:00 15.5 8 Sudoeste 14 Oeste 0 -- -- 45
2019-04-07 21:00:00 16.6 3 Sudoeste 5 Sudoeste 0 -- -- 44
2019-04-07 20:00:00 18.2 4 Oeste 28 Oeste 0 -- -- 34
2019-04-07 19:00:00 19.8 7 Noroeste 33 Oeste 0 -- -- 30
2019-04-07 18:00:00 19.3 21 Oeste 36 Oeste 0 -- -- 29
2019-04-07 17:00:00 19.8 20 Oeste 45 Oeste 0 -- -- 31
2019-04-07 16:00:00 19.4 20 Oeste 49 Oeste 0 -- -- 31
2019-04-07 15:00:00 18.6 14 Noroeste 52 Oeste 0 -- -- 34
2019-04-07 14:00:00 17.6 22 Oeste 51 Oeste 0 -- -- 37
2019-04-07 13:00:00 16.6 22 Oeste 54 Oeste 0 -- -- 39
2019-04-07 12:00:00 15.8 19 Oeste 64 Oeste 0 -- -- 43
2019-04-07 11:00:00 14.6 27 Oeste 56 Oeste 0 -- -- 49
2019-04-07 10:00:00 13.5 23 Oeste 48 Oeste 0 -- -- 51
2019-04-07 09:00:00 12.1 17 Oeste 35 Oeste 0 -- -- 55
2019-04-07 08:00:00 10.6 16 Oeste 37 Oeste 0 -- -- 59
2019-04-07 07:00:00 11.1 17 Oeste 40 Oeste 0 -- -- 57
2019-04-07 06:00:00 11.3 26 Oeste 41 Oeste 0 -- -- 56
2019-04-07 05:00:00 11.3 15 Oeste 44 Oeste 0 -- -- 56
2019-04-07 04:00:00 11.4 20 Oeste 35 Oeste 0 -- -- 55
2019-04-07 03:00:00 11.5 16 Oeste 42 Oeste 0 -- -- 56
2019-04-07 02:00:00 11.6 21 Oeste 49 Oeste 0 -- -- 55
2019-04-07 01:00:00 11.5 21 Oeste 44 Oeste 0.2 -- -- 56
2019-04-07 00:00:00 12.5 24 Oeste 45 Sudoeste 0 -- -- 54
2019-04-06 23:00:00 11.9 6 Sudoeste 12 Noroeste 0 -- -- 61
2019-04-06 22:00:00 12.7 7 Oeste 14 Oeste 0 -- -- 52
2019-04-06 21:00:00 12.5 4 Oeste 16 Oeste 0 -- -- 61
2019-04-06 20:00:00 14.1 3 Oeste 22 Este 0 -- -- 63
2019-04-06 19:00:00 13.5 9 Este 22 Oeste 0 -- -- 63
2019-04-06 18:00:00 13 6 Sudoeste 22 Sudoeste 0.2 -- -- 63
2019-04-06 17:00:00 13.7 4 Este 21 Sudeste 1.2 -- -- 73
2019-04-06 16:00:00 15.8 4 Oeste 50 Sudoeste 0.4 -- -- 53
2019-04-06 15:00:00 16.1 22 Oeste 59 Sudoeste 0 -- -- 45
2019-04-06 14:00:00 16.7 20 Oeste 40 Sudoeste 0 -- -- 42
2019-04-06 13:00:00 15.4 19 Oeste 44 Oeste 0 -- -- 46
2019-04-06 12:00:00 15 28 Oeste 53 Sudoeste 0 -- -- 43
2019-04-06 11:00:00 14.1 23 Oeste 49 Sudoeste 0 -- -- 47
2019-04-06 10:00:00 12.7 24 Oeste 51 Oeste 0 -- -- 49
2019-04-06 09:00:00 11.4 14 Oeste 33 Oeste 0 -- -- 54
2019-04-06 08:00:00 10.3 11 Oeste 35 Oeste 0 -- -- 61
2019-04-06 07:00:00 10.2 15 Oeste 33 Oeste 0 -- -- 61
2019-04-06 06:00:00 10.4 17 Oeste 29 Oeste 0 -- -- 60
2019-04-06 05:00:00 10.1 3 Sudoeste 15 Sudeste 0 -- -- 61
2019-04-06 04:00:00 11.1 6 Oeste 20 Oeste 0 -- -- 56
2019-04-06 03:00:00 11 11 Oeste 32 Oeste 0 -- -- 55
2019-04-06 02:00:00 10.9 25 Oeste 45 Noroeste 0 -- -- 56
2019-04-06 01:00:00 10.7 8 Oeste 30 Oeste 0 -- -- 62
2019-04-06 00:00:00 10.6 12 Oeste 22 Oeste 0 -- -- 66
2019-04-05 23:00:00 9.9 10 Oeste 47 Sudoeste 0.4 -- -- 77
2019-04-05 22:00:00 10.6 7 Sudoeste 10 Sudoeste 0 -- -- 88
2019-04-05 21:00:00 10.6 6 Oeste 14 Oeste 0 -- -- 85
2019-04-05 20:00:00 10.5 0 Calma 13 Este 0 -- -- 90
2019-04-05 19:00:00 10.4 0 Calma 41 Oeste 1 -- -- 87
2019-04-05 18:00:00 10.9 20 Oeste 40 Sudoeste 1.6 -- -- 79
2019-04-05 17:00:00 14.8 18 Oeste 43 Oeste 0 -- -- 60
2019-04-05 16:00:00 18.5 5 Este 14 Sudeste 0 -- -- 52
2019-04-05 15:00:00 18.2 6 Este 23 Nordeste 0 -- -- 57
2019-04-05 14:00:00 17.7 15 Nordeste 27 Nordeste 0 -- -- 52
2019-04-05 13:00:00 18.9 13 Nordeste 23 Nordeste 0 -- -- 47
2019-04-05 12:00:00 18.3 9 Este 22 Este 0 -- -- 49
2019-04-05 11:00:00 17.4 5 Este 10 Nordeste 0 -- -- 45
2019-04-05 10:00:00 14.8 6 Nordeste 12 Nordeste 0 -- -- 61
2019-04-05 09:00:00 10.6 2 Oeste 6 Noroeste 0 -- -- 77
2019-04-05 08:00:00 8.9 2 Oeste 8 Sudoeste 0 -- -- 82
2019-04-05 07:00:00 9.1 3 Sudoeste 9 Sur 0 -- -- 80
2019-04-05 06:00:00 9.6 0 Calma 10 Oeste 0 -- -- 78
2019-04-05 05:00:00 9.4 3 Oeste 9 Sudoeste 0 -- -- 78
2019-04-05 04:00:00 9.6 2 Sudoeste 5 Norte 0 -- -- 78
2019-04-05 03:00:00 12 0 Calma 10 Oeste 0 -- -- 67
2019-04-05 02:00:00 11.7 2 Oeste 13 Oeste 0 -- -- 66
2019-04-05 01:00:00 12.2 2 Norte 12 Oeste 0 -- -- 62
2019-04-05 00:00:00 12.7 3 Noroeste 15 Oeste 0 -- -- 61
2019-04-04 23:00:00 12.8 5 Oeste 10 Noroeste 0 -- -- 60
2019-04-04 22:00:00 13.3 3 Noroeste 24 Sudoeste 0 -- -- 60
2019-04-04 21:00:00 14.1 8 Sudoeste 23 Sudoeste 0 -- -- 56
2019-04-04 20:00:00 15.7 5 Sur 21 Sudeste 0 -- -- 52
2019-04-04 19:00:00 17.2 9 Sudeste 28 Este 0 -- -- 48
2019-04-04 18:00:00 17.7 10 Este 25 Este 0 -- -- 48
2019-04-04 17:00:00 17.4 12 Sudeste 28 Este 0 -- -- 48
2019-04-04 16:00:00 16.4 14 Este 26 Este 0 -- -- 51
2019-04-04 15:00:00 18 13 Este 26 Este 0 -- -- 47
2019-04-04 14:00:00 17.4 8 Nordeste 23 Nordeste 0 -- -- 44
2019-04-04 13:00:00 16.7 10 Nordeste 20 Norte 0 -- -- 45
2019-04-04 12:00:00 15.6 9 Noroeste 20 Oeste 0 -- -- 41
2019-04-04 11:00:00 15.3 5 Sudoeste 17 Oeste 0 -- -- 49
2019-04-04 10:00:00 14.4 5 Noroeste 13 Oeste 0 -- -- 55
2019-04-04 09:00:00 11.9 3 Sudoeste 7 Sudoeste 0 -- -- 65
2019-04-04 08:00:00 11.1 2 Sudoeste 5 Sudoeste 0 -- -- 73
2019-04-04 07:00:00 11.2 3 Sudoeste 6 Sudoeste 0 -- -- 72
2019-04-04 06:00:00 11.4 2 Oeste 4 Sur 0 -- -- 72
2019-04-04 05:00:00 11.6 0 Calma 10 Nordeste 0 -- -- 65
2019-04-04 04:00:00 12.4 3 Nordeste 15 Nordeste 0 -- -- 65
2019-04-04 03:00:00 12.7 8 Nordeste 18 Nordeste 0 -- -- 64
2019-04-04 02:00:00 13.1 5 Nordeste 14 Nordeste 0 -- -- 70
2019-04-04 01:00:00 13.5 6 Nordeste 13 Nordeste 0 -- -- 70
2019-04-04 00:00:00 13.8 4 Nordeste 21 Norte 0 -- -- 73
2019-04-03 23:00:00 14.4 6 Nordeste 18 Noroeste 0 -- -- 78
2019-04-03 22:00:00 15.8 8 Norte 32 Noroeste 0 -- -- 73
2019-04-03 21:00:00 20 7 Oeste 16 Sudoeste 0 -- -- 51
2019-04-03 20:00:00 21 8 Sudoeste 25 Sudoeste 0 -- -- 46
2019-04-03 19:00:00 22.1 10 Sudoeste 31 Sur 0 -- -- 44
2019-04-03 18:00:00 22.4 11 Sudoeste 25 Sudoeste 0 -- -- 43
2019-04-03 17:00:00 23.3 13 Sudoeste 27 Sudoeste 0 -- -- 41
2019-04-03 16:00:00 24.1 14 Oeste 38 Oeste 0 -- -- 31
2019-04-03 15:00:00 24.2 14 Sudoeste 29 Oeste 0 -- -- 33
2019-04-03 14:00:00 23.5 16 Oeste 33 Sudoeste 0 -- -- 35
2019-04-03 13:00:00 23 14 Oeste 30 Oeste 0 -- -- 36
2019-04-03 12:00:00 21.8 14 Oeste 24 Oeste 0 -- -- 39
2019-04-03 11:00:00 20.6 16 Oeste 27 Oeste 0 -- -- 45
2019-04-03 10:00:00 19 14 Oeste 23 Oeste 0 -- -- 52
2019-04-03 09:00:00 16.2 9 Oeste 17 Oeste 0 -- -- 61
2019-04-03 08:00:00 13.8 4 Sudoeste 15 Oeste 0 -- -- 70
2019-04-03 07:00:00 12.9 3 Norte 13 Oeste 0 -- -- 76
2019-04-03 06:00:00 13.6 5 Sudoeste 19 Oeste 0 -- -- 73
2019-04-03 05:00:00 13.2 5 Sudoeste 10 Oeste 0 -- -- 75
2019-04-03 04:00:00 13.1 5 Sudoeste 13 Sudoeste 0 -- -- 76
2019-04-03 03:00:00 13.4 8 Sudoeste 18 Oeste 0 -- -- 77
2019-04-03 02:00:00 13.4 8 Sudoeste 14 Sudoeste 0 -- -- 78
2019-04-03 01:00:00 13.6 2 Nordeste 13 Oeste 0 -- -- 81
2019-04-03 00:00:00 13.8 8 Oeste 23 Oeste 0 -- -- 81
2019-04-02 23:00:00 13.8 7 Sudoeste 20 Oeste 0 -- -- 83
2019-04-02 22:00:00 13.4 9 Sudoeste 19 Sudoeste 0 -- -- 85
2019-04-02 21:00:00 13.6 8 Sudoeste 15 Sudoeste 0 -- -- 86
2019-04-02 20:00:00 14.7 6 Sudoeste 19 Noroeste 4 -- -- 84
2019-04-02 19:00:00 16.3 3 Nordeste 29 Sudoeste 8.4 -- -- 84
2019-04-02 18:00:00 20.2 5 Sudeste 15 Este 0 -- -- 65
2019-04-02 17:00:00 20.6 6 Este 17 Este 0 -- -- 63
2019-04-02 16:00:00 20.8 7 Este 24 Este 0 -- -- 60
2019-04-02 15:00:00 22.2 8 Nordeste 22 Oeste 0 -- -- 53
2019-04-02 14:00:00 21.8 13 Oeste 23 Oeste 0 -- -- 47
2019-04-02 13:00:00 20.5 10 Oeste 23 Oeste 0 -- -- 55
2019-04-02 12:00:00 19.3 9 Oeste 18 Oeste 0 -- -- 58
2019-04-02 11:00:00 17.4 4 Este 11 Nordeste 0 -- -- 72
2019-04-02 10:00:00 15.7 4 Sur 6 Sur 0 -- -- 73
2019-04-02 09:00:00 12.4 0 Calma 9 Sudoeste 0 -- -- 88
2019-04-02 08:00:00 10.8 4 Sudoeste 8 Sudoeste 0 -- -- 90
2019-04-02 07:00:00 10.7 4 Sudoeste 8 Sudoeste 0 -- -- 92
2019-04-02 06:00:00 10.3 4 Sudoeste 9 Sudoeste 0 -- -- 92
2019-04-02 05:00:00 10.2 3 Sudoeste 7 Sudoeste 0 -- -- 92
2019-04-02 04:00:00 10.7 4 Sudoeste 8 Sur 0 -- -- 92
2019-04-02 03:00:00 11 5 Sudoeste 10 Sudoeste 0 -- -- 92
2019-04-02 02:00:00 11.1 3 Sudoeste 8 Sudoeste 0 -- -- 93
2019-04-02 01:00:00 10.8 2 Sudoeste 6 Sudoeste 0 -- -- 92
2019-04-02 00:00:00 11.2 4 Oeste 7 Oeste 0 -- -- 91
2019-04-01 23:00:00 12.2 2 Sudoeste 7 Sudoeste 0 -- -- 92
2019-04-01 22:00:00 12.1 3 Sudoeste 8 Sudoeste 0 -- -- 92
2019-04-01 21:00:00 12.6 4 Sudoeste 9 Sudoeste 0 -- -- 91
2019-04-01 20:00:00 13.3 0 Calma 7 Sudoeste 0 -- -- 91
2019-04-01 19:00:00 13.2 4 Oeste 9 Oeste 0 -- -- 89
2019-04-01 18:00:00 13 3 Sudoeste 10 Oeste 0 -- -- 92
2019-04-01 17:00:00 12.9 4 Oeste 11 Oeste 0.2 -- -- 92
2019-04-01 16:00:00 12.8 4 Oeste 14 Oeste 0.2 -- -- 91
2019-04-01 15:00:00 13.4 3 Noroeste 13 Norte 0 -- -- 90
2019-04-01 14:00:00 13.7 5 Norte 17 Nordeste 0 -- -- 93
2019-04-01 13:00:00 13.9 7 Nordeste 15 Nordeste 0 -- -- 94
2019-04-01 12:00:00 13.4 4 Norte 12 Noroeste 1.2 -- -- 93
2019-04-01 11:00:00 13 3 Noroeste 8 Sudoeste 0.2 -- -- 94
2019-04-01 10:00:00 12.8 4 Sudoeste 8 Sudoeste 0 -- -- 95
2019-04-01 09:00:00 12.4 3 Sudoeste 8 Oeste 0.4 -- -- 95
2019-04-01 08:00:00 12.5 4 Oeste 8 Oeste 5 -- -- 95
2019-04-01 07:00:00 12.7 3 Norte 13 Oeste 2.4 -- -- 94
2019-04-01 06:00:00 12.9 8 Oeste 14 Sudoeste 3.2 -- -- 94
2019-04-01 05:00:00 13.3 0 Calma 13 Norte 0 -- -- 95
2019-04-01 04:00:00 13.9 6 Nordeste 19 Norte 0 -- -- 96
2019-04-01 03:00:00 13.9 8 Nordeste 18 Norte 0 -- -- 96
2019-04-01 02:00:00 13.6 8 Norte 20 Norte 0 -- -- 96
2019-04-01 01:00:00 13.3 9 Nordeste 25 Nordeste 0.6 -- -- 95
2019-04-01 00:00:00 13.3 14 Nordeste 31 Norte 0.4 -- -- 95
2019-03-31 23:00:00 13.1 14 Nordeste 33 Norte 1.2 -- -- 95
2019-03-31 22:00:00 13.1 10 Nordeste 30 Nordeste 2 -- -- 95
2019-03-31 21:00:00 13.1 12 Nordeste 37 Este 1 -- -- 95
2019-03-31 20:00:00 13.2 17 Nordeste 34 Nordeste 2 -- -- 95
2019-03-31 19:00:00 13.2 11 Nordeste 21 Nordeste 15.6 -- -- 95
2019-03-31 18:00:00 13.2 6 Norte 20 Noroeste 7 -- -- 95
2019-03-31 17:00:00 13.2 9 Nordeste 20 Nordeste 4.6 -- -- 95
2019-03-31 16:00:00 13.4 7 Nordeste 18 Nordeste 3.8 -- -- 94
2019-03-31 15:00:00 13.4 8 Nordeste 18 Nordeste 1.6 -- -- 94
2019-03-31 14:00:00 13.6 6 Nordeste 20 Este 2.4 -- -- 95
2019-03-31 13:00:00 12.6 6 Nordeste 15 Nordeste 6.4 -- -- 95
2019-03-31 12:00:00 12.9 7 Nordeste 16 Nordeste 5.8 -- -- 95
2019-03-31 11:00:00 12.2 4 Sur 18 Este 3.8 -- -- 94
2019-03-31 10:00:00 11.4 4 Sudoeste 13 Sudoeste 3.6 -- -- 94
2019-03-31 09:00:00 11.1 4 Sudoeste 10 Oeste 3 -- -- 93
2019-03-31 08:00:00 10.9 4 Sudoeste 9 Oeste 2.4 -- -- 93
2019-03-31 07:00:00 10.7 5 Sudoeste 9 Sudoeste 2.4 -- -- 92
2019-03-31 06:00:00 10.9 3 Oeste 10 Oeste 1.6 -- -- 91
2019-03-31 05:00:00 10.9 5 Oeste 12 Sudoeste 0.2 -- -- 85
2019-03-31 03:00:00 10.3 5 Sudoeste 10 Oeste 0 -- -- 82
2019-03-31 01:00:00 10 5 Sudoeste 9 Sudoeste 0 -- -- 81
2019-03-31 00:00:00 10.1 5 Sudoeste 10 Sudoeste 0 -- -- 82
2019-03-30 23:00:00 10.3 4 Sudoeste 10 Oeste 0 -- -- 81
2019-03-30 22:00:00 11 5 Oeste 9 Oeste 0 -- -- 79
2019-03-30 21:00:00 11.4 3 Sudoeste 8 Sudoeste 0 -- -- 78
2019-03-30 20:00:00 12.2 3 Sudoeste 5 Sudoeste 0 -- -- 74
2019-03-30 19:00:00 13.7 2 Nordeste 14 Este 0 -- -- 69
2019-03-30 18:00:00 14.8 8 Nordeste 17 Nordeste 0 -- -- 66
2019-03-30 17:00:00 15.2 6 Nordeste 18 Nordeste 0 -- -- 66
2019-03-30 16:00:00 14.8 9 Nordeste 20 Nordeste 0 -- -- 67
2019-03-30 15:00:00 14.9 10 Nordeste 24 Nordeste 0 -- -- 67
2019-03-30 14:00:00 15.9 12 Nordeste 19 Nordeste 0 -- -- 58
2019-03-30 13:00:00 16.5 10 Nordeste 19 Nordeste 0 -- -- 59
2019-03-30 12:00:00 16.7 11 Nordeste 21 Nordeste 0 -- -- 58
2019-03-30 11:00:00 15.7 5 Norte 18 Norte 0 -- -- 63
2019-03-30 10:00:00 15.9 7 Nordeste 17 Nordeste 0 -- -- 60
2019-03-30 09:00:00 14 3 Sur 7 Sudoeste 0 -- -- 67
2019-03-30 08:00:00 10.8 4 Sudoeste 8 Sudoeste 0 -- -- 80
2019-03-30 07:00:00 10.2 5 Sudoeste 9 Sudoeste 0 -- -- 80
2019-03-30 06:00:00 9.8 5 Sudoeste 13 Oeste 0 -- -- 81
2019-03-30 05:00:00 9.8 5 Sudoeste 13 Oeste 0 -- -- 81
2019-03-30 04:00:00 10 6 Sudoeste 15 Oeste 0 -- -- 80
2019-03-30 03:00:00 10.1 4 Sudoeste 10 Sudoeste 0 -- -- 81
2019-03-30 02:00:00 10.5 5 Sudoeste 11 Sudoeste 0 -- -- 80
2019-03-30 01:00:00 10.2 6 Sudoeste 9 Sudoeste 0 -- -- 82
2019-03-30 00:00:00 10.4 5 Sudoeste 10 Sudoeste 0 -- -- 81
2019-03-29 23:00:00 11 4 Sudoeste 8 Sudoeste 0 -- -- 80
2019-03-29 22:00:00 11.4 4 Sudoeste 6 Sudoeste 0 -- -- 79
2019-03-29 21:00:00 12.1 3 Sudoeste 5 Sudoeste 0 -- -- 77
2019-03-29 20:00:00 13.1 0 Calma 11 Nordeste 0 -- -- 73
2019-03-29 19:00:00 14.4 7 Nordeste 18 Este 0 -- -- 66
2019-03-29 18:00:00 15.7 12 Nordeste 22 Nordeste 0 -- -- 60
2019-03-29 17:00:00 16.3 10 Nordeste 24 Este 0 -- -- 55
2019-03-29 16:00:00 17 14 Nordeste 27 Nordeste 0 -- -- 54
2019-03-29 15:00:00 17 12 Nordeste 25 Nordeste 0 -- -- 54
2019-03-29 14:00:00 17 11 Nordeste 23 Este 0 -- -- 55
2019-03-29 13:00:00 17.2 10 Nordeste 22 Norte 0 -- -- 56
2019-03-29 12:00:00 16.7 8 Nordeste 19 Nordeste 0 -- -- 57
2019-03-29 11:00:00 15.4 9 Nordeste 17 Nordeste 0 -- -- 64
2019-03-29 10:00:00 15.5 7 Nordeste 13 Este 0 -- -- 64
2019-03-29 09:00:00 13.3 3 Sudoeste 11 Oeste 0 -- -- 70
2019-03-29 08:00:00 10 6 Sudoeste 15 Oeste 0 -- -- 69
2019-03-29 07:00:00 8.6 10 Sudoeste 15 Sudoeste 0 -- -- 72
2019-03-29 06:00:00 8.4 7 Sudoeste 14 Sudoeste 0 -- -- 70
2019-03-29 05:00:00 8.4 6 Sudoeste 13 Sudoeste 0 -- -- 66
2019-03-29 04:00:00 8.6 6 Sudoeste 13 Sudoeste 0 -- -- 60
2019-03-29 03:00:00 8.8 6 Sudoeste 13 Sudoeste 0 -- -- 59
2019-03-29 02:00:00 9.2 7 Sudoeste 13 Sudoeste 0 -- -- 58
2019-03-29 01:00:00 9.2 8 Sudoeste 14 Sudoeste 0 -- -- 62
2019-03-29 00:00:00 9.8 6 Sudoeste 12 Sudoeste 0 -- -- 67
2019-03-28 23:00:00 10.3 5 Sudoeste 9 Sudoeste 0 -- -- 71
2019-03-28 22:00:00 10.9 3 Sudoeste 8 Oeste 0 -- -- 76
2019-03-28 21:00:00 11.6 4 Sudoeste 8 Sudoeste 0 -- -- 77
2019-03-28 20:00:00 13.4 0 Calma 6 Este 0 -- -- 71
2019-03-28 19:00:00 15.3 2 Norte 17 Nordeste 0 -- -- 66
2019-03-28 18:00:00 16.5 9 Nordeste 18 Nordeste 0 -- -- 60
2019-03-28 17:00:00 17.5 10 Nordeste 21 Nordeste 0 -- -- 50
2019-03-28 16:00:00 18.6 10 Nordeste 22 Este 0 -- -- 33
2019-03-28 15:00:00 18.6 10 Este 22 Nordeste 0 -- -- 30
2019-03-28 14:00:00 18.4 9 Este 20 Nordeste 0 -- -- 31
2019-03-28 13:00:00 17.6 11 Nordeste 23 Nordeste 0 -- -- 43
2019-03-28 12:00:00 18 13 Nordeste 24 Nordeste 0 -- -- 42
2019-03-28 11:00:00 18.8 5 Norte 13 Este 0 -- -- 27
2019-03-28 10:00:00 16.9 3 Sur 14 Oeste 0 -- -- 33
2019-03-28 09:00:00 13.8 12 Oeste 17 Oeste 0 -- -- 40
2019-03-28 08:00:00 10 10 Oeste 19 Oeste 0 -- -- 48
2019-03-28 07:00:00 7.7 8 Sudoeste 12 Sudoeste 0 -- -- 53
2019-03-28 06:00:00 7.8 6 Sudoeste 14 Oeste 0 -- -- 55
2019-03-28 05:00:00 8.1 4 Sudoeste 14 Sudoeste 0 -- -- 55
2019-03-28 04:00:00 8.6 8 Sudoeste 17 Sudoeste 0 -- -- 53
2019-03-28 03:00:00 8.5 7 Sudoeste 13 Sudoeste 0 -- -- 54
2019-03-28 02:00:00 8.8 8 Sudoeste 14 Sudoeste 0 -- -- 52
2019-03-28 01:00:00 8.8 8 Sudoeste 12 Sudoeste 0 -- -- 53
2019-03-28 00:00:00 9.1 6 Sudoeste 11 Sudoeste 0 -- -- 56
2019-03-27 23:00:00 9.5 5 Sudoeste 10 Sudoeste 0 -- -- 59
2019-03-27 22:00:00 10.4 6 Sudoeste 11 Sudoeste 0 -- -- 63
2019-03-27 21:00:00 10.8 4 Sudoeste 8 Sudoeste 0 -- -- 68
2019-03-27 20:00:00 12.6 2 Oeste 8 Nordeste 0 -- -- 63
2019-03-27 19:00:00 15 4 Nordeste 15 Nordeste 0 -- -- 56
2019-03-27 18:00:00 16.4 5 Nordeste 15 Nordeste 0 -- -- 49
2019-03-27 17:00:00 17.1 8 Nordeste 22 Nordeste 0 -- -- 43
2019-03-27 16:00:00 17.9 11 Nordeste 23 Nordeste 0 -- -- 37
2019-03-27 15:00:00 18.1 12 Nordeste 26 Nordeste 0 -- -- 36
2019-03-27 14:00:00 17.9 12 Nordeste 29 Este 0 -- -- 36
2019-03-27 13:00:00 18.1 9 Nordeste 24 Nordeste 0 -- -- 32
2019-03-27 12:00:00 17.8 8 Nordeste 17 Nordeste 0 -- -- 39
2019-03-27 11:00:00 16.8 8 Nordeste 21 Nordeste 0 -- -- 43
2019-03-27 10:00:00 16.1 4 Norte 12 Noroeste 0 -- -- 49
2019-03-27 09:00:00 13.5 4 Oeste 13 Oeste 0 -- -- 58
2019-03-27 08:00:00 9.5 6 Sudoeste 13 Sudoeste 0 -- -- 71
2019-03-27 07:00:00 8.1 5 Sudoeste 14 Sudoeste 0 -- -- 75
2019-03-27 06:00:00 8.3 8 Sudoeste 13 Sudoeste 0 -- -- 74
2019-03-27 05:00:00 8.5 6 Sudoeste 12 Sudoeste 0 -- -- 73
2019-03-27 04:00:00 8.9 6 Sudoeste 12 Sudoeste 0 -- -- 72
2019-03-27 03:00:00 9.2 6 Sudoeste 17 Sudoeste 0 -- -- 71
2019-03-27 02:00:00 9.2 5 Sudoeste 12 Sudoeste 0 -- -- 71
2019-03-27 01:00:00 9.2 5 Sudoeste 9 Sudoeste 0 -- -- 72
2019-03-27 00:00:00 9.8 3 Sudoeste 10 Sudoeste 0 -- -- 71
2019-03-26 23:00:00 9.6 4 Sudoeste 10 Sudoeste 0 -- -- 71
2019-03-26 22:00:00 10.2 3 Sudoeste 6 Sudoeste 0 -- -- 73
2019-03-26 21:00:00 12.3 3 Nordeste 13 Este 0 -- -- 65
2019-03-26 20:00:00 13 5 Este 26 Nordeste 0 -- -- 63
2019-03-26 19:00:00 14.1 12 Nordeste 28 Nordeste 0 -- -- 58
2019-03-26 18:00:00 16 13 Este 31 Nordeste 0 -- -- 52
2019-03-26 17:00:00 17.2 14 Nordeste 31 Nordeste 0 -- -- 46
2019-03-26 16:00:00 17.9 15 Nordeste 26 Nordeste 0 -- -- 43
2019-03-26 15:00:00 17.9 14 Nordeste 30 Nordeste 0 -- -- 53
2019-03-26 14:00:00 17.1 9 Este 19 Este 0 -- -- 60
2019-03-26 13:00:00 17.2 10 Nordeste 21 Nordeste 0 -- -- 59
2019-03-26 12:00:00 16.4 11 Nordeste 22 Nordeste 0 -- -- 60
2019-03-26 11:00:00 16.4 13 Nordeste 30 Nordeste 0 -- -- 62
2019-03-26 10:00:00 16.6 11 Nordeste 27 Nordeste 0 -- -- 58
2019-03-26 09:00:00 15.5 12 Nordeste 23 Nordeste 0 -- -- 69
2019-03-26 08:00:00 12.4 4 Norte 14 Oeste 0 -- -- 81
2019-03-26 07:00:00 10.4 6 Sudoeste 12 Oeste 0 -- -- 72
2019-03-26 06:00:00 10.1 4 Sudoeste 14 Sudoeste 0 -- -- 65
2019-03-26 05:00:00 10.3 5 Sudoeste 11 Sudoeste 0 -- -- 63
2019-03-26 04:00:00 10.4 6 Sudoeste 11 Sudoeste 0 -- -- 63
2019-03-26 03:00:00 10.7 5 Sudoeste 12 Sudoeste 0 -- -- 63
2019-03-26 02:00:00 11.2 4 Sudoeste 9 Sudoeste 0 -- -- 62
2019-03-26 01:00:00 11.5 3 Sudoeste 7 Sudoeste 0 -- -- 62
2019-03-26 00:00:00 11.4 3 Sudoeste 6 Sudoeste 0 -- -- 65
2019-03-25 23:00:00 12.1 4 Sudoeste 10 Sudoeste 0 -- -- 62
2019-03-25 22:00:00 12.9 5 Sudoeste 9 Sudoeste 0 -- -- 62
2019-03-25 21:00:00 13.5 4 Sudoeste 8 Sudoeste 0 -- -- 63
2019-03-25 20:00:00 15.4 0 Calma 6 Sudoeste 0 -- -- 59
2019-03-25 19:00:00 18.3 3 Norte 10 Nordeste 0 -- -- 50
2019-03-25 18:00:00 20.2 7 Nordeste 14 Nordeste 0 -- -- 44
2019-03-25 17:00:00 21.6 6 Nordeste 12 Nordeste 0 -- -- 37
2019-03-25 16:00:00 21.4 5 Nordeste 17 Nordeste 0 -- -- 35
2019-03-25 15:00:00 21.5 10 Nordeste 19 Nordeste 0 -- -- 39
2019-03-25 14:00:00 21.3 10 Nordeste 22 Nordeste 0 -- -- 37
2019-03-25 13:00:00 21.1 12 Nordeste 22 Nordeste 0 -- -- 35
2019-03-25 12:00:00 21.7 8 Nordeste 17 Nordeste 0 -- -- 34
2019-03-25 11:00:00 20.4 7 Nordeste 15 Este 0 -- -- 39
2019-03-25 10:00:00 19.6 6 Este 11 Este 0 -- -- 34
2019-03-25 09:00:00 15.8 3 Sudoeste 13 Sudoeste 0 -- -- 42
2019-03-25 08:00:00 12.2 8 Sudoeste 13 Sudoeste 0 -- -- 47
2019-03-25 07:00:00 10.6 7 Sudoeste 14 Sudoeste 0 -- -- 50
2019-03-25 06:00:00 11.1 6 Sudoeste 14 Sudoeste 0 -- -- 49
2019-03-25 05:00:00 11.5 10 Sudoeste 15 Sudoeste 0 -- -- 47
2019-03-25 04:00:00 11.5 6 Sudoeste 14 Sudoeste 0 -- -- 48
2019-03-25 03:00:00 11.8 7 Sudoeste 14 Sudoeste 0 -- -- 47
2019-03-25 02:00:00 12 6 Sudoeste 12 Sudoeste 0 -- -- 48
2019-03-25 01:00:00 12.3 4 Sudoeste 12 Sudoeste 0 -- -- 48
2019-03-25 00:00:00 13 6 Sudoeste 12 Oeste 0 -- -- 48
2019-03-24 23:00:00 13.5 6 Sudoeste 11 Sudoeste 0 -- -- 49
2019-03-24 22:00:00 13.8 7 Sudoeste 12 Sudoeste 0 -- -- 55
2019-03-24 21:00:00 14.6 5 Sudoeste 11 Sudoeste 0 -- -- 56
2019-03-24 20:00:00 15.5 3 Sudoeste 7 Sudoeste 0 -- -- 60
2019-03-24 19:00:00 18.5 0 Calma 6 Nordeste 0 -- -- 46
2019-03-24 18:00:00 19.4 4 Nordeste 10 Nordeste 0 -- -- 48
2019-03-24 17:00:00 20.7 6 Nordeste 14 Nordeste 0 -- -- 42
2019-03-24 16:00:00 21.9 10 Nordeste 16 Nordeste 0 -- -- 40
2019-03-24 15:00:00 20.8 8 Nordeste 19 Nordeste 0 -- -- 46
2019-03-24 14:00:00 20.7 10 Nordeste 21 Nordeste 0 -- -- 46
2019-03-24 13:00:00 21 10 Nordeste 19 Nordeste 0 -- -- 45
2019-03-24 12:00:00 20.9 10 Nordeste 19 Nordeste 0 -- -- 44
2019-03-24 11:00:00 20.3 6 Nordeste 15 Nordeste 0 -- -- 46
2019-03-24 10:00:00 19 2 Norte 8 Oeste 0 -- -- 45
2019-03-24 09:00:00 15.4 3 Sudoeste 9 Sudoeste 0 -- -- 58
2019-03-24 08:00:00 11.5 7 Sudoeste 14 Sudoeste 0 -- -- 68
2019-03-24 07:00:00 10.1 6 Sudoeste 12 Sur 0 -- -- 73
2019-03-24 06:00:00 10.2 7 Sudoeste 12 Oeste 0 -- -- 72
2019-03-24 05:00:00 10.3 5 Sudoeste 12 Sudoeste 0 -- -- 72
2019-03-24 04:00:00 10.2 5 Sudoeste 9 Sudoeste 0 -- -- 74
2019-03-24 03:00:00 10.7 4 Sudoeste 10 Sudoeste 0 -- -- 72
2019-03-24 02:00:00 10.9 5 Sudoeste 10 Sudoeste 0 -- -- 72
2019-03-24 01:00:00 11.4 5 Sudoeste 12 Sudoeste 0 -- -- 72
2019-03-24 00:00:00 11.4 7 Sudoeste 12 Sudoeste 0 -- -- 76
2019-03-23 23:00:00 11.9 4 Sudoeste 6 Sudoeste 0 -- -- 80
2019-03-23 22:00:00 12.1 0 Calma 5 Sudoeste 0 -- -- 79
2019-03-23 21:00:00 12.4 4 Sudoeste 6 Sudoeste 0 -- -- 76
2019-03-23 20:00:00 13.3 3 Sudoeste 4 Sudoeste 0 -- -- 76
2019-03-23 19:00:00 15.6 4 Este 11 Nordeste 0 -- -- 67
2019-03-23 18:00:00 17.3 7 Nordeste 15 Nordeste 0 -- -- 56
2019-03-23 17:00:00 18.4 10 Nordeste 17 Nordeste 0 -- -- 52
2019-03-23 16:00:00 18.5 7 Nordeste 17 Este 0 -- -- 49
2019-03-23 15:00:00 17.6 9 Nordeste 19 Este 0 -- -- 52
2019-03-23 14:00:00 18.3 9 Nordeste 18 Nordeste 0 -- -- 51
2019-03-23 13:00:00 17.3 5 Sudoeste 14 Oeste 0 -- -- 56
2019-03-23 12:00:00 16 3 Oeste 12 Norte 0 -- -- 62
2019-03-23 11:00:00 15 3 Noroeste 12 Oeste 0 -- -- 67
2019-03-23 10:00:00 14.5 4 Noroeste 9 Noroeste 0 -- -- 69
2019-03-23 09:00:00 13.2 4 Oeste 10 Oeste 0 -- -- 69
2019-03-23 08:00:00 12 6 Sudoeste 10 Sudoeste 0 -- -- 73
2019-03-23 07:00:00 11.6 4 Sudoeste 10 Oeste 0 -- -- 76
2019-03-23 06:00:00 11.7 5 Sudoeste 12 Oeste 0 -- -- 75
2019-03-23 05:00:00 11.2 6 Oeste 11 Oeste 0 -- -- 79
2019-03-23 04:00:00 11.2 4 Sudoeste 9 Sudoeste 0 -- -- 76
2019-03-23 03:00:00 11.8 3 Sudoeste 8 Oeste 0 -- -- 68
2019-03-23 02:00:00 11.3 5 Sudoeste 8 Sudoeste 0 -- -- 65
2019-03-23 01:00:00 11.3 4 Sudoeste 10 Sudoeste 0 -- -- 65
2019-03-23 00:00:00 11.6 5 Sudoeste 9 Sudoeste 0 -- -- 64
2019-03-22 23:00:00 12.1 4 Sudoeste 7 Sudoeste 0 -- -- 67
2019-03-22 22:00:00 13 4 Sur 11 Nordeste 0 -- -- 61
2019-03-22 21:00:00 13 7 Oeste 12 Oeste 0 -- -- 58
2019-03-22 20:00:00 13 7 Oeste 10 Oeste 0 -- -- 63
2019-03-22 19:00:00 15.7 5 Sudoeste 9 Oeste 0 -- -- 58
2019-03-22 18:00:00 16.9 4 Norte 18 Nordeste 0 -- -- 52
2019-03-22 17:00:00 17.7 7 Norte 18 Norte 0 -- -- 50
2019-03-22 16:00:00 18.3 10 Nordeste 23 Nordeste 0 -- -- 50
2019-03-22 15:00:00 17.9 8 Norte 22 Nordeste 0 -- -- 53
2019-03-22 14:00:00 17.6 8 Norte 26 Nordeste 0 -- -- 51
2019-03-22 13:00:00 15.9 6 Norte 18 Norte 0 -- -- 50
2019-03-22 12:00:00 16.1 7 Norte 23 Nordeste 0 -- -- 49
2019-03-22 11:00:00 15.6 6 Norte 23 Este 0 -- -- 52
2019-03-22 10:00:00 14.7 7 Oeste 15 Oeste 0 -- -- 52
2019-03-22 09:00:00 12.4 9 Oeste 15 Oeste 0 -- -- 57
2019-03-22 08:00:00 10.5 7 Oeste 12 Oeste 0 -- -- 70
2019-03-22 07:00:00 9.5 6 Oeste 11 Oeste 0 -- -- 76
2019-03-22 06:00:00 9.4 5 Oeste 10 Oeste 0 -- -- 77
2019-03-22 05:00:00 9.1 6 Oeste 11 Oeste 0 -- -- 82
2019-03-22 04:00:00 9.3 9 Oeste 14 Oeste 0 -- -- 81
2019-03-22 03:00:00 9.6 6 Oeste 13 Oeste 0 -- -- 79
2019-03-22 02:00:00 9.1 3 Sudoeste 14 Sudoeste 0 -- -- 82
2019-03-22 01:00:00 9 6 Oeste 12 Oeste 0 -- -- 80
2019-03-22 00:00:00 9.4 4 Sudoeste 10 Sudoeste 0 -- -- 78
2019-03-21 23:00:00 9.8 5 Sudoeste 8 Sudoeste 0 -- -- 77
2019-03-21 22:00:00 10.8 4 Sudoeste 6 Noroeste 0 -- -- 74
2019-03-21 21:00:00 11.1 0 Calma 6 Nordeste 0 -- -- 73
2019-03-21 20:00:00 12 0 Calma 12 Nordeste 0 -- -- 68
2019-03-21 19:00:00 13 6 Norte 20 Norte 0 -- -- 62
2019-03-21 18:00:00 14.5 8 Norte 23 Nordeste 0 -- -- 57
2019-03-21 17:00:00 14.9 12 Nordeste 28 Nordeste 0 -- -- 55
2019-03-21 16:00:00 15.6 13 Nordeste 31 Norte 0 -- -- 51
2019-03-21 15:00:00 15.3 18 Nordeste 34 Nordeste 0 -- -- 53
2019-03-21 14:00:00 14.9 15 Nordeste 32 Norte 0 -- -- 60
2019-03-21 13:00:00 14.9 13 Norte 30 Norte 0 -- -- 57
2019-03-21 12:00:00 15.3 10 Norte 25 Noroeste 0 -- -- 56
2019-03-21 11:00:00 15.3 8 Norte 21 Norte 0 -- -- 56
2019-03-21 10:00:00 13.9 6 Norte 18 Noroeste 0 -- -- 55
2019-03-21 09:00:00 11.8 5 Oeste 13 Oeste 0 -- -- 58
2019-03-21 08:00:00 8 4 Sudoeste 11 Sudoeste 0 -- -- 80
2019-03-21 07:00:00 7.6 6 Sudoeste 11 Sudoeste 0 -- -- 82
2019-03-21 06:00:00 7.6 5 Sudoeste 12 Sudoeste 0 -- -- 84
2019-03-21 05:00:00 7.6 5 Sudoeste 13 Oeste 0 -- -- 84
2019-03-21 04:00:00 7.7 6 Sudoeste 16 Oeste 0 -- -- 83
2019-03-21 03:00:00 8.1 6 Sudoeste 13 Oeste 0 -- -- 82
2019-03-21 02:00:00 8.5 8 Oeste 14 Sudoeste 0 -- -- 82
2019-03-21 01:00:00 8.9 6 Sudoeste 10 Oeste 0 -- -- 80
2019-03-21 00:00:00 8.7 6 Sudoeste 10 Sudoeste 0 -- -- 82
2019-03-20 23:00:00 8.6 4 Sudoeste 10 Sudoeste 0 -- -- 83
2019-03-20 22:00:00 9.4 4 Sudoeste 9 Sudoeste 0 -- -- 81
2019-03-20 21:00:00 9.5 4 Sudoeste 8 Sur 0 -- -- 81
2019-03-20 20:00:00 10.1 4 Sudoeste 8 Sudoeste 0 -- -- 78
2019-03-20 19:00:00 12.9 0 Calma 9 Nordeste 0 -- -- 68
2019-03-20 18:00:00 13.7 9 Este 18 Este 0 -- -- 62
2019-03-20 17:00:00 14.5 3 Este 14 Este 0 -- -- 58
2019-03-20 16:00:00 14.1 5 Este 11 Este 0 -- -- 66
2019-03-20 15:00:00 11.7 8 Oeste 18 Sur 0.8 -- -- 77
2019-03-20 14:00:00 9.9 10 Este 21 Este 2 -- -- 84
2019-03-20 13:00:00 11.2 7 Sudoeste 10 Sudoeste 0.2 -- -- 82
2019-03-20 12:00:00 10.4 4 Sur 18 Oeste 0.2 -- -- 80
2019-03-20 11:00:00 9 8 Oeste 22 Oeste 0.4 -- -- 89
2019-03-20 10:00:00 8.3 2 Sudoeste 22 Este 3.8 -- -- 87
2019-03-20 09:00:00 8.9 5 Oeste 17 Oeste 0.2 -- -- 85
2019-03-20 08:00:00 8.7 2 Sudeste 12 Sudoeste 0 -- -- 88
2019-03-20 07:00:00 8.6 8 Sudoeste 17 Sudoeste 0.4 -- -- 88
2019-03-20 06:00:00 8.5 10 Sudoeste 17 Sudoeste 0.8 -- -- 89
2019-03-20 05:00:00 8.8 7 Oeste 16 Oeste 1.4 -- -- 90
2019-03-20 04:00:00 9.2 3 Sudoeste 35 Nordeste 2.6 -- -- 83
2019-03-20 03:00:00 10.5 7 Oeste 11 Oeste 0 -- -- 73
2019-03-20 02:00:00 10.2 3 Sudoeste 8 Oeste 0 -- -- 76
2019-03-20 01:00:00 10 4 Sudoeste 8 Sudoeste 0 -- -- 76
2019-03-20 00:00:00 10.7 3 Sudoeste 5 Sudoeste 0 -- -- 74
2019-03-19 23:00:00 10.9 2 Oeste 5 Sudoeste 0 -- -- 75
2019-03-19 22:00:00 10.9 2 Sudoeste 8 Oeste 0 -- -- 71
2019-03-19 21:00:00 10.9 2 Sudoeste 8 Oeste 0 -- -- 71
2019-03-19 20:00:00 11.8 3 Este 11 Nordeste 0 -- -- 66
2019-03-19 19:00:00 13.3 8 Nordeste 13 Nordeste 0 -- -- 60
2019-03-19 18:00:00 15.2 7 Nordeste 22 Nordeste 0 -- -- 48
2019-03-19 17:00:00 16.5 9 Nordeste 20 Nordeste 0 -- -- 40
2019-03-19 16:00:00 16.3 9 Nordeste 26 Nordeste 0 -- -- 43
2019-03-19 15:00:00 16.7 10 Nordeste 26 Nordeste 0 -- -- 41
2019-03-19 14:00:00 16.4 14 Nordeste 26 Norte 0 -- -- 42
2019-03-19 13:00:00 16.2 14 Nordeste 30 Nordeste 0 -- -- 41
2019-03-19 12:00:00 16.1 11 Norte 27 Norte 0 -- -- 43
2019-03-19 11:00:00 14.5 9 Oeste 18 Oeste 0 -- -- 44
2019-03-19 10:00:00 13.5 9 Oeste 17 Oeste 0 -- -- 44
2019-03-19 09:00:00 12.3 7 Oeste 16 Oeste 0 -- -- 51
2019-03-19 08:00:00 10 4 Oeste 10 Sudoeste 0 -- -- 70
2019-03-19 07:00:00 9.6 3 Sudoeste 8 Sudoeste 0 -- -- 72
2019-03-19 06:00:00 9.3 5 Sudoeste 11 Sudoeste 0 -- -- 73
2019-03-19 05:00:00 8.8 7 Sudoeste 12 Sudoeste 0 -- -- 75
2019-03-19 04:00:00 9 5 Sudoeste 9 Sur 0 -- -- 74
2019-03-19 03:00:00 9.2 4 Sudoeste 11 Sudoeste 0 -- -- 74
2019-03-19 02:00:00 10 2 Sudoeste 10 Oeste 0 -- -- 71
2019-03-19 01:00:00 10 5 Sudoeste 12 Oeste 0 -- -- 70
2019-03-19 00:00:00 10.2 6 Sudoeste 10 Sudoeste 0 -- -- 64